createdAt,value
2022-08-26T08:35:59.375Z,35.07
2022-08-26T08:38:04.247Z,35.07
2022-08-26T08:40:09.053Z,34.91
2022-08-26T08:42:33.607Z,33.84
2022-08-26T08:44:40.931Z,32.94
2022-08-26T08:46:45.174Z,33.06
2022-08-26T08:48:56.778Z,33.47
2022-08-26T08:51:18.326Z,33.96
2022-08-26T08:53:33.005Z,33.81
2022-08-26T08:55:48.810Z,33.19
2022-08-26T08:58:13.428Z,33.55
2022-08-26T09:00:19.404Z,33.16
2022-08-26T09:02:39.344Z,32.93
2022-08-26T09:05:00.920Z,32.54
2022-08-26T09:07:06.265Z,32.25
2022-08-26T09:09:22.990Z,32.59
2022-08-26T09:11:26.145Z,32.53
2022-08-26T09:13:29.205Z,32.77
2022-08-26T09:15:53.108Z,32.03
2022-08-26T09:18:22.063Z,31.89
2022-08-26T09:20:49.619Z,32.28
2022-08-26T09:22:52.507Z,32.57
2022-08-26T09:24:55.267Z,31.97
2022-08-26T09:26:59.208Z,30.34
2022-08-26T09:29:05.388Z,30.77
2022-08-26T09:31:22.002Z,31.55
2022-08-26T09:33:32.346Z,31.54
2022-08-26T09:35:41.694Z,32.02
2022-08-26T09:40:29.266Z,31.47
2022-08-26T09:42:32.555Z,31.24
2022-08-26T09:44:56.755Z,31.24
2022-08-26T09:47:08.938Z,31.26
2022-08-26T09:49:36.818Z,30.29
2022-08-26T09:51:39.335Z,30.64
2022-08-26T09:53:54.653Z,31.14
2022-08-26T09:56:17.059Z,31.13
2022-08-26T09:58:38.576Z,30.02
2022-08-26T10:00:56.608Z,29.53
2022-08-26T10:03:01.053Z,30.26
2022-08-26T10:05:09.584Z,29.94
2022-08-26T10:07:12.315Z,30.57
2022-08-26T10:09:18.849Z,30.50
2022-08-26T10:11:31.324Z,30.71
2022-08-26T10:13:38.170Z,30.41
2022-08-26T10:15:51.198Z,29.64
2022-08-26T10:18:03.400Z,29.97
2022-08-26T10:20:23.664Z,29.70
2022-08-26T10:22:33.060Z,29.07
2022-08-26T10:24:41.547Z,30.10
2022-08-26T10:27:02.452Z,29.96
2022-08-26T10:29:15.383Z,29.64
2022-08-26T10:31:40.295Z,29.47
2022-08-26T10:33:43.209Z,29.61
2022-08-26T10:35:53.514Z,28.95
2022-08-26T10:38:01.654Z,28.06
2022-08-26T10:40:16.317Z,27.52
2022-08-26T10:42:38.239Z,27.38
2022-08-26T10:44:41.480Z,27.23
2022-08-26T10:46:53.592Z,27.40
2022-08-26T10:49:06.751Z,27.82
2022-08-26T10:51:12.610Z,27.02
2022-08-26T10:53:38.011Z,25.97
2022-08-26T10:56:03.800Z,25.90
2022-08-26T10:58:26.417Z,27.48
2022-08-26T11:00:56.046Z,27.00
2022-08-26T11:03:25.362Z,25.81
2022-08-26T11:05:27.736Z,25.54
2022-08-26T11:07:32.897Z,25.15
2022-08-26T11:09:46.916Z,25.26
2022-08-26T11:11:50.537Z,25.52
2022-08-26T11:14:04.853Z,24.42
2022-08-26T11:16:08.358Z,23.83
2022-08-26T11:18:29.787Z,24.38
2022-08-26T11:20:45.122Z,24.39
2022-08-26T11:22:50.596Z,22.80
2022-08-26T11:24:52.777Z,22.04
2022-08-26T11:26:56.697Z,20.86
2022-08-26T11:28:59.722Z,20.21
2022-08-26T11:31:10.173Z,18.80
2022-08-26T11:33:44.347Z,18.32
2022-08-26T11:35:48.951Z,16.06
2022-08-26T11:37:58.228Z,15.98
2022-08-26T11:40:03.136Z,15.07
2022-08-26T11:42:34.466Z,15.43
2022-08-26T11:44:49.443Z,15.87
2022-08-26T11:46:54.094Z,13.56
2022-08-26T11:49:05.861Z,13.84
2022-08-26T11:51:12.345Z,13.54
2022-08-26T11:53:19.222Z,14.33
2022-08-26T11:55:23.219Z,13.91
2022-08-26T11:57:27.219Z,13.22
2022-08-26T12:01:46.519Z,13.40
2022-08-26T12:03:52.127Z,13.50
2022-08-26T12:05:55.199Z,12.69
2022-08-26T12:08:13.364Z,11.71
2022-08-26T12:10:29.868Z,10.43
2022-08-26T12:12:38.735Z,10.72
2022-08-26T12:14:42.073Z,10.10
2022-08-26T12:16:44.777Z,10.73
2022-08-26T12:18:47.105Z,11.79
2022-08-26T12:20:53.924Z,11.49
2022-08-26T12:22:59.246Z,11.82
2022-08-26T12:25:06.071Z,12.36
2022-08-26T12:27:16.305Z,11.68
2022-08-26T12:29:28.308Z,11.37
2022-08-26T12:31:44.057Z,10.83
2022-08-26T12:33:49.337Z,10.46
2022-08-26T12:35:56.626Z,10.46
2022-08-26T12:37:59.499Z,10.67
2022-08-26T12:40:39.787Z,11.58
2022-08-26T12:42:43.598Z,9.70
2022-08-26T12:44:54.075Z,10.02
2022-08-26T12:47:06.250Z,8.64
2022-08-26T12:49:08.821Z,9.80
2022-08-26T12:51:29.856Z,9.37
2022-08-26T12:53:34.355Z,9.32
2022-08-26T12:55:42.597Z,9.25
2022-08-26T12:57:45.068Z,10.24
2022-08-26T12:59:47.355Z,9.25
2022-08-26T13:01:50.878Z,8.97
2022-08-26T13:03:53.303Z,8.09
2022-08-26T13:06:23.358Z,8.99
2022-08-26T13:08:27.954Z,8.82
2022-08-26T13:10:36.767Z,9.24
2022-08-26T13:12:41.128Z,9.92
2022-08-26T13:14:43.729Z,11.14
2022-08-26T13:16:46.605Z,11.19
2022-08-26T13:18:51.646Z,13.02
2022-08-26T13:20:54.289Z,13.83
2022-08-26T13:22:59.130Z,14.52
2022-08-26T13:25:01.929Z,15.91
2022-08-26T13:27:06.345Z,14.68
2022-08-26T13:29:10.531Z,14.49
2022-08-26T13:31:14.823Z,16.02
2022-08-26T13:33:18.675Z,16.15
2022-08-26T13:35:22.829Z,17.54
2022-08-26T13:37:35.067Z,16.96
2022-08-26T13:39:39.470Z,16.18
2022-08-26T13:41:43.493Z,16.78
2022-08-26T13:43:46.249Z,18.09
2022-08-26T13:45:49.707Z,17.74
2022-08-26T13:47:52.522Z,17.51
2022-08-26T13:49:56.355Z,17.75
2022-08-26T13:51:59.011Z,18.26
2022-08-26T13:54:01.894Z,18.60
2022-08-26T13:56:06.970Z,18.79
2022-08-26T13:58:12.368Z,20.75
2022-08-26T14:00:15.596Z,19.08
2022-08-26T14:02:18.207Z,19.82
2022-08-26T14:04:23.258Z,19.28
2022-08-26T14:06:30.081Z,19.48
2022-08-26T14:08:32.788Z,18.85
2022-08-26T14:10:35.583Z,19.28
2022-08-26T14:12:38.351Z,18.37
2022-08-26T14:14:40.962Z,18.56
2022-08-26T14:16:58.956Z,19.17
2022-08-26T14:19:04.744Z,18.37
2022-08-26T14:21:08.434Z,19.02
2022-08-26T14:23:13.968Z,19.36
2022-08-26T14:25:17.129Z,19.14
2022-08-26T14:27:19.775Z,18.99
2022-08-26T14:29:22.185Z,19.38
2022-08-26T14:31:27.029Z,19.23
2022-08-26T14:33:33.088Z,18.82
2022-08-26T14:35:35.380Z,19.42
2022-08-26T14:37:37.995Z,19.75
2022-08-26T14:39:40.597Z,20.35
2022-08-26T14:41:54.287Z,20.87
2022-08-26T14:44:08.146Z,20.33
2022-08-26T14:46:10.813Z,20.39
2022-08-26T14:48:13.483Z,20.06
2022-08-26T14:50:18.735Z,20.19
2022-08-26T14:52:21.593Z,20.50
2022-08-26T14:54:24.023Z,19.60
2022-08-26T14:56:27.057Z,20.28
2022-08-26T14:58:32.930Z,20.50
2022-08-26T15:00:37.876Z,19.96
2022-08-26T15:02:40.349Z,19.81
2022-08-26T15:04:43.025Z,21.09
2022-08-26T15:06:45.554Z,20.65
2022-08-26T15:08:47.866Z,20.67
2022-08-26T15:10:50.857Z,20.53
2022-08-26T15:12:53.231Z,20.72
2022-08-26T15:14:55.587Z,20.92
2022-08-26T15:16:58.326Z,20.47
2022-08-26T15:19:00.951Z,20.24
2022-08-26T15:21:05.505Z,20.14
2022-08-26T15:23:08.503Z,20.34
2022-08-26T15:25:11.541Z,20.33
2022-08-26T15:27:13.898Z,20.17
2022-08-26T15:29:16.561Z,20.58
2022-08-26T15:31:19.466Z,20.91
2022-08-26T15:33:22.166Z,21.92
2022-08-26T15:35:24.893Z,21.14
2022-08-26T15:37:27.323Z,21.69
2022-08-26T15:39:29.773Z,22.12
2022-08-26T15:41:34.731Z,21.72
2022-08-26T15:43:38.403Z,21.71
2022-08-26T15:45:40.679Z,22.50
2022-08-26T15:48:01.364Z,22.90
2022-08-26T15:50:07.117Z,22.26
2022-08-26T15:52:09.540Z,22.78
2022-08-26T15:54:12.137Z,22.90
2022-08-26T15:56:14.823Z,23.18
2022-08-26T15:58:17.159Z,23.49
2022-08-26T16:00:20.712Z,23.93
2022-08-26T16:02:23.444Z,23.94
2022-08-26T16:04:26.688Z,23.24
2022-08-26T16:06:32.024Z,23.24
2022-08-26T16:08:36.675Z,23.70
2022-08-26T16:10:46.503Z,24.00
2022-08-26T16:12:51.719Z,24.24
2022-08-26T16:14:54.714Z,24.47
2022-08-26T16:17:00.103Z,24.52
2022-08-26T16:19:07.314Z,25.04
2022-08-26T16:21:19.521Z,24.52
2022-08-26T16:23:22.843Z,24.64
2022-08-26T16:25:25.909Z,25.91
2022-08-26T16:27:28.532Z,25.62
2022-08-26T16:29:32.020Z,25.68
2022-08-26T16:31:34.981Z,26.12
2022-08-26T16:33:37.972Z,26.35
2022-08-26T16:35:41.298Z,26.68
2022-08-26T16:37:43.618Z,27.09
2022-08-26T16:39:46.275Z,26.27
2022-08-26T16:41:48.604Z,27.30
2022-08-26T16:43:51.678Z,27.27
2022-08-26T16:45:54.448Z,27.61
2022-08-26T16:47:56.834Z,27.79
2022-08-26T16:49:59.736Z,27.69
2022-08-26T16:52:02.655Z,27.55
2022-08-26T16:54:06.996Z,28.43
2022-08-26T16:56:17.763Z,28.42
2022-08-26T16:58:22.106Z,28.59
2022-08-26T17:00:28.191Z,28.92
2022-08-26T17:02:30.561Z,29.21
2022-08-26T17:04:33.792Z,29.04
2022-08-26T17:06:36.133Z,28.82
2022-08-26T17:08:40.266Z,29.82
2022-08-26T17:12:50.305Z,29.96
2022-08-26T17:14:52.726Z,29.68
2022-08-26T17:16:55.445Z,29.86
2022-08-26T17:18:59.245Z,29.88
2022-08-26T17:21:08.237Z,29.47
2022-08-26T17:23:10.982Z,29.98
2022-08-26T17:25:20.486Z,29.69
2022-08-26T17:27:22.740Z,29.71
2022-08-26T17:29:25.817Z,29.97
2022-08-26T17:31:28.140Z,29.70
2022-08-26T17:33:30.762Z,30.13
2022-08-26T17:35:33.772Z,30.18
2022-08-26T17:37:36.136Z,30.53
2022-08-26T17:39:43.941Z,30.53
2022-08-26T17:41:46.564Z,30.43
2022-08-26T17:43:48.836Z,30.90
2022-08-26T17:45:51.572Z,30.64
2022-08-26T17:47:56.156Z,30.99
2022-08-26T17:49:58.793Z,30.69
2022-08-26T17:52:01.627Z,31.00
2022-08-26T17:54:04.340Z,31.11
2022-08-26T17:56:08.905Z,31.42
2022-08-26T17:58:11.526Z,31.49
2022-08-26T18:00:20.782Z,31.30
2022-08-26T18:02:23.565Z,30.98
2022-08-26T18:04:25.936Z,31.16
2022-08-26T18:06:30.641Z,31.17
2022-08-26T18:08:33.315Z,31.39
2022-08-26T18:10:35.824Z,31.29
2022-08-26T18:12:39.138Z,31.35
2022-08-26T18:14:41.709Z,31.48
2022-08-26T18:16:44.080Z,31.77
2022-08-26T18:18:47.976Z,32.29
2022-08-26T18:20:51.876Z,32.28
2022-08-26T18:22:56.449Z,32.70
2022-08-26T18:24:59.361Z,32.82
2022-08-26T18:27:02.221Z,33.08
2022-08-26T18:29:05.462Z,33.23
2022-08-26T18:31:08.979Z,32.98
2022-08-26T18:33:12.271Z,33.45
2022-08-26T18:35:14.629Z,33.21
2022-08-26T18:37:16.971Z,33.12
2022-08-26T18:39:19.599Z,33.66
2022-08-26T18:41:28.749Z,34.17
2022-08-26T18:43:31.052Z,34.22
2022-08-26T18:45:33.745Z,34.51
2022-08-26T18:47:36.230Z,34.45
2022-08-26T18:49:39.188Z,34.46
2022-08-26T18:51:43.085Z,34.69
2022-08-26T18:53:45.487Z,34.97
2022-08-26T18:55:48.048Z,35.09
2022-08-26T18:57:50.830Z,35.37
2022-08-26T18:59:53.450Z,35.27
2022-08-26T19:01:55.924Z,35.30
2022-08-26T19:04:00.434Z,34.97
2022-08-26T19:06:03.137Z,34.99
2022-08-26T19:08:06.796Z,35.00
2022-08-26T19:10:09.732Z,35.08
2022-08-26T19:12:12.789Z,34.97
2022-08-26T19:14:16.252Z,35.15
2022-08-26T19:16:20.673Z,34.91
2022-08-26T19:18:23.058Z,35.22
2022-08-26T19:20:25.353Z,34.94
2022-08-26T19:22:27.935Z,34.89
2022-08-26T19:24:31.038Z,35.16
2022-08-26T19:26:34.640Z,34.81
2022-08-26T19:28:41.061Z,34.81
2022-08-26T19:30:45.563Z,34.86
2022-08-26T19:32:48.382Z,34.59
2022-08-26T19:34:52.427Z,34.53
2022-08-26T19:36:56.935Z,34.88
2022-08-26T19:39:00.540Z,34.89
2022-08-26T19:41:03.277Z,34.40
2022-08-26T19:43:06.198Z,34.51
2022-08-26T19:45:24.271Z,34.93
2022-08-26T19:47:27.936Z,34.84
2022-08-26T19:49:30.925Z,35.02
2022-08-26T19:51:35.270Z,35.25
2022-08-26T19:53:38.330Z,35.33
2022-08-26T19:55:44.155Z,34.84
2022-08-26T19:57:47.387Z,35.29
2022-08-26T19:59:50.444Z,35.41
2022-08-26T20:02:00.596Z,35.50
2022-08-26T20:04:04.507Z,35.54
2022-08-26T20:06:09.166Z,35.38
2022-08-26T20:08:22.242Z,35.16
2022-08-26T20:10:25.550Z,34.93
2022-08-26T20:12:28.275Z,35.30
2022-08-26T20:14:31.229Z,35.60
2022-08-26T20:16:34.201Z,35.98
2022-08-26T20:18:55.438Z,36.05
2022-08-26T20:21:17.086Z,35.48
2022-08-26T20:23:21.443Z,35.31
2022-08-26T20:25:24.217Z,35.62
2022-08-26T20:27:35.573Z,35.13
2022-08-26T20:29:43.145Z,35.58
2022-08-26T20:31:46.952Z,35.89
2022-08-26T20:33:50.667Z,35.56
2022-08-26T20:35:53.314Z,35.19
2022-08-26T20:37:55.643Z,35.15
2022-08-26T20:39:58.890Z,35.26
2022-08-26T20:42:01.556Z,34.92
2022-08-26T20:44:05.317Z,34.57
2022-08-26T20:46:08.255Z,35.28
2022-08-26T20:48:20.447Z,35.71
2022-08-26T20:50:23.146Z,35.40
2022-08-26T20:52:25.531Z,35.90
2022-08-26T20:54:28.721Z,35.80
2022-08-26T20:56:31.182Z,36.15
2022-08-26T20:58:34.786Z,36.05
2022-08-26T21:00:38.268Z,35.96
2022-08-26T21:02:40.655Z,36.51
2022-08-26T21:04:43.030Z,36.75
2022-08-26T21:06:52.271Z,37.06
2022-08-26T21:08:55.595Z,36.89
2022-08-26T21:10:58.452Z,37.48
2022-08-26T21:13:02.114Z,37.31
2022-08-26T21:15:05.737Z,37.58
2022-08-26T21:17:08.155Z,38.57
2022-08-26T21:19:12.586Z,38.77
2022-08-26T21:21:15.277Z,38.23
2022-08-26T21:23:18.799Z,38.42
2022-08-26T21:25:21.728Z,38.39
2022-08-26T21:27:26.337Z,38.72
2022-08-26T21:29:28.998Z,38.56
2022-08-26T21:31:32.206Z,38.53
2022-08-26T21:33:36.367Z,38.79
2022-08-26T21:35:39.060Z,38.93
2022-08-26T21:37:41.697Z,38.74
2022-08-26T21:39:44.259Z,38.89
2022-08-26T21:41:47.387Z,39.18
2022-08-26T21:43:51.904Z,39.22
2022-08-26T21:45:57.623Z,39.24
2022-08-26T21:47:59.995Z,39.49
2022-08-26T21:50:03.206Z,39.11
2022-08-26T21:52:06.017Z,38.39
2022-08-26T21:54:11.329Z,38.50
2022-08-26T21:56:17.213Z,38.29
2022-08-26T21:58:19.507Z,38.70
2022-08-26T22:00:21.997Z,38.91
2022-08-26T22:02:24.925Z,39.28
2022-08-26T22:04:27.799Z,39.59
2022-08-26T22:06:31.461Z,39.92
2022-08-26T22:08:34.118Z,40.56
2022-08-26T22:10:41.549Z,41.04
2022-08-26T22:12:43.828Z,41.15
2022-08-26T22:14:47.057Z,41.37
2022-08-26T22:16:50.507Z,42.31
2022-08-26T22:18:53.457Z,41.97
2022-08-26T22:20:58.999Z,42.42
2022-08-26T22:23:01.383Z,42.87
2022-08-26T22:25:03.955Z,42.62
